sensor_id;sensor_type;location;lat;lon;timestamp;P1;durP1;ratioP1;P2;durP2;ratioP2
16025;SDS011;8117;52.488;13.460;2022-10-16T02:21:19;0.73;;;0.60;;
16025;SDS011;8117;52.488;13.460;2022-10-16T02:23:54;2.40;;;1.23;;
16025;SDS011;8117;52.488;13.460;2022-10-16T02:26:34;1.00;;;0.77;;
16025;SDS011;8117;52.488;13.460;2022-10-16T02:29:06;2.17;;;0.70;;
16025;SDS011;8117;52.488;13.460;2022-10-16T02:34:48;0.50;;;0.50;;
16025;SDS011;8117;52.488;13.460;2022-10-16T02:37:31;0.93;;;0.80;;
16025;SDS011;8117;52.488;13.460;2022-10-16T02:40:15;1.63;;;0.80;;
16025;SDS011;8117;52.488;13.460;2022-10-16T02:43:13;0.70;;;0.70;;
16025;SDS011;8117;52.488;13.460;2022-10-16T02:45:49;1.17;;;0.70;;
16025;SDS011;8117;52.488;13.460;2022-10-16T02:48:29;0.70;;;0.70;;
16025;SDS011;8117;52.488;13.460;2022-10-16T02:51:04;1.47;;;0.70;;
16025;SDS011;8117;52.488;13.460;2022-10-16T03:24:04;1.60;;;1.00;;
16025;SDS011;8117;52.488;13.460;2022-10-16T03:27:06;0.77;;;0.60;;
16025;SDS011;8117;52.488;13.460;2022-10-16T03:52:47;0.80;;;0.77;;
16025;SDS011;8117;52.488;13.460;2022-10-16T03:55:14;0.60;;;0.60;;
16025;SDS011;8117;52.488;13.460;2022-10-16T04:49:55;1.53;;;0.80;;
16025;SDS011;8117;52.488;13.460;2022-10-16T04:56:08;0.70;;;0.43;;
16025;SDS011;8117;52.488;13.460;2022-10-16T04:58:35;0.90;;;0.80;;
16025;SDS011;8117;52.488;13.460;2022-10-16T05:01:06;1.13;;;0.83;;
16025;SDS011;8117;52.488;13.460;2022-10-16T05:03:32;0.50;;;0.50;;
16025;SDS011;8117;52.488;13.460;2022-10-16T05:06:01;1.77;;;0.87;;
16025;SDS011;8117;52.488;13.460;2022-10-16T05:11:58;0.90;;;0.70;;
16025;SDS011;8117;52.488;13.460;2022-10-16T05:14:32;1.00;;;0.90;;
16025;SDS011;8117;52.488;13.460;2022-10-16T05:17:01;1.33;;;0.70;;
16025;SDS011;8117;52.488;13.460;2022-10-16T05:19:36;0.70;;;0.70;;
16025;SDS011;8117;52.488;13.460;2022-10-16T05:22:06;0.70;;;0.63;;
16025;SDS011;8117;52.488;13.460;2022-10-16T05:27:46;1.03;;;0.87;;
16025;SDS011;8117;52.488;13.460;2022-10-16T05:30:27;0.60;;;0.60;;
16025;SDS011;8117;52.488;13.460;2022-10-16T05:35:30;0.60;;;0.60;;
16025;SDS011;8117;52.488;13.460;2022-10-16T05:38:10;0.83;;;0.80;;
16025;SDS011;8117;52.488;13.460;2022-10-16T05:40:36;1.07;;;0.70;;
16025;SDS011;8117;52.488;13.460;2022-10-16T05:43:23;0.60;;;0.60;;
16025;SDS011;8117;52.488;13.460;2022-10-16T05:46:09;1.23;;;0.80;;
16025;SDS011;8117;52.488;13.460;2022-10-16T05:48:53;0.83;;;0.63;;
16025;SDS011;8117;52.488;13.460;2022-10-16T05:51:23;1.00;;;0.80;;
16025;SDS011;8117;52.488;13.460;2022-10-16T05:56:51;1.57;;;1.17;;
16025;SDS011;8117;52.488;13.460;2022-10-16T05:59:33;0.83;;;0.70;;
16025;SDS011;8117;52.488;13.460;2022-10-16T06:02:15;1.03;;;0.93;;
16025;SDS011;8117;52.488;13.460;2022-10-16T06:04:41;0.80;;;0.80;;
16025;SDS011;8117;52.488;13.460;2022-10-16T06:07:08;0.90;;;0.80;;
16025;SDS011;8117;52.488;13.460;2022-10-16T06:09:36;1.10;;;0.63;;
16025;SDS011;8117;52.488;13.460;2022-10-16T06:12:03;0.73;;;0.73;;
16025;SDS011;8117;52.488;13.460;2022-10-16T06:14:29;0.60;;;0.60;;
16025;SDS011;8117;52.488;13.460;2022-10-16T06:16:56;1.30;;;1.20;;
16025;SDS011;8117;52.488;13.460;2022-10-16T06:19:22;0.70;;;0.70;;
16025;SDS011;8117;52.488;13.460;2022-10-16T06:22:19;2.27;;;0.93;;
16025;SDS011;8117;52.488;13.460;2022-10-16T06:24:44;0.80;;;0.80;;
16025;SDS011;8117;52.488;13.460;2022-10-16T06:27:11;0.87;;;0.63;;
16025;SDS011;8117;52.488;13.460;2022-10-16T06:29:41;0.73;;;0.73;;
16025;SDS011;8117;52.488;13.460;2022-10-16T06:32:08;1.03;;;0.60;;
16025;SDS011;8117;52.488;13.460;2022-10-16T06:34:35;0.80;;;0.80;;
16025;SDS011;8117;52.488;13.460;2022-10-16T06:37:01;0.93;;;0.73;;
16025;SDS011;8117;52.488;13.460;2022-10-16T06:39:28;2.10;;;0.93;;
16025;SDS011;8117;52.488;13.460;2022-10-16T06:41:57;0.70;;;0.70;;
16025;SDS011;8117;52.488;13.460;2022-10-16T06:44:25;0.60;;;0.60;;
16025;SDS011;8117;52.488;13.460;2022-10-16T06:46:53;0.70;;;0.70;;
16025;SDS011;8117;52.488;13.460;2022-10-16T06:49:20;0.60;;;0.60;;
16025;SDS011;8117;52.488;13.460;2022-10-16T06:51:51;0.90;;;0.50;;
16025;SDS011;8117;52.488;13.460;2022-10-16T06:54:19;1.77;;;1.20;;
16025;SDS011;8117;52.488;13.460;2022-10-16T06:56:45;0.60;;;0.60;;
16025;SDS011;8117;52.488;13.460;2022-10-16T06:59:13;0.70;;;0.70;;
16025;SDS011;8117;52.488;13.460;2022-10-16T07:01:40;1.53;;;1.10;;
16025;SDS011;8117;52.488;13.460;2022-10-16T07:04:08;0.70;;;0.70;;
16025;SDS011;8117;52.488;13.460;2022-10-16T07:06:34;0.50;;;0.50;;
16025;SDS011;8117;52.488;13.460;2022-10-16T07:09:04;1.03;;;0.63;;
16025;SDS011;8117;52.488;13.460;2022-10-16T07:11:46;0.83;;;0.80;;
16025;SDS011;8117;52.488;13.460;2022-10-16T07:14:17;0.53;;;0.53;;
16025;SDS011;8117;52.488;13.460;2022-10-16T07:16:50;0.80;;;0.80;;
16025;SDS011;8117;52.488;13.460;2022-10-16T07:19:20;0.80;;;0.67;;
16025;SDS011;8117;52.488;13.460;2022-10-16T07:21:48;0.73;;;0.73;;
16025;SDS011;8117;52.488;13.460;2022-10-16T07:24:15;0.50;;;0.50;;
16025;SDS011;8117;52.488;13.460;2022-10-16T07:26:45;0.87;;;0.70;;
16025;SDS011;8117;52.488;13.460;2022-10-16T07:35:11;0.47;;;0.47;;
16025;SDS011;8117;52.488;13.460;2022-10-16T08:24:46;0.40;;;0.40;;
16025;SDS011;8117;52.488;13.460;2022-10-16T08:27:25;0.60;;;0.53;;
16025;SDS011;8117;52.488;13.460;2022-10-16T08:29:58;0.50;;;0.50;;
16025;SDS011;8117;52.488;13.460;2022-10-16T08:32:25;1.43;;;1.17;;
16025;SDS011;8117;52.488;13.460;2022-10-16T08:34:51;0.60;;;0.50;;
16025;SDS011;8117;52.488;13.460;2022-10-16T08:37:21;0.50;;;0.43;;
16025;SDS011;8117;52.488;13.460;2022-10-16T08:39:47;0.50;;;0.50;;
16025;SDS011;8117;52.488;13.460;2022-10-16T08:42:21;0.50;;;0.50;;
16025;SDS011;8117;52.488;13.460;2022-10-16T08:45:05;0.40;;;0.40;;
16025;SDS011;8117;52.488;13.460;2022-10-16T08:47:56;0.60;;;0.37;;
16025;SDS011;8117;52.488;13.460;2022-10-16T08:50:39;0.67;;;0.60;;
16025;SDS011;8117;52.488;13.460;2022-10-16T08:53:17;1.03;;;0.80;;
16025;SDS011;8117;52.488;13.460;2022-10-16T08:55:51;0.83;;;0.40;;
16025;SDS011;8117;52.488;13.460;2022-10-16T08:58:20;0.73;;;0.40;;
16025;SDS011;8117;52.488;13.460;2022-10-16T09:00:53;0.97;;;0.70;;
16025;SDS011;8117;52.488;13.460;2022-10-16T09:03:23;0.83;;;0.60;;
16025;SDS011;8117;52.488;13.460;2022-10-16T09:06:06;0.70;;;0.67;;
16025;SDS011;8117;52.488;13.460;2022-10-16T09:08:40;0.40;;;0.40;;
16025;SDS011;8117;52.488;13.460;2022-10-16T09:11:34;0.50;;;0.50;;
16025;SDS011;8117;52.488;13.460;2022-10-16T09:14:22;0.40;;;0.40;;
16025;SDS011;8117;52.488;13.460;2022-10-16T09:17:22;0.87;;;0.60;;
16025;SDS011;8117;52.488;13.460;2022-10-16T09:19:58;3.27;;;0.60;;
16025;SDS011;8117;52.488;13.460;2022-10-16T09:22:41;0.20;;;0.20;;
16025;SDS011;8117;52.488;13.460;2022-10-16T09:25:17;0.50;;;0.50;;
16025;SDS011;8117;52.488;13.460;2022-10-16T09:27:48;0.43;;;0.43;;
16025;SDS011;8117;52.488;13.460;2022-10-16T09:30:21;0.73;;;0.70;;
16025;SDS011;8117;52.488;13.460;2022-10-16T09:32:50;0.70;;;0.63;;
16025;SDS011;8117;52.488;13.460;2022-10-16T09:35:33;0.40;;;0.40;;
16025;SDS011;8117;52.488;13.460;2022-10-16T09:38:03;0.60;;;0.60;;
16025;SDS011;8117;52.488;13.460;2022-10-16T09:40:31;0.33;;;0.33;;
16025;SDS011;8117;52.488;13.460;2022-10-16T09:43:01;0.53;;;0.40;;
16025;SDS011;8117;52.488;13.460;2022-10-16T09:45:34;0.40;;;0.40;;
16025;SDS011;8117;52.488;13.460;2022-10-16T09:48:10;0.40;;;0.40;;
16025;SDS011;8117;52.488;13.460;2022-10-16T09:50:37;0.73;;;0.60;;
16025;SDS011;8117;52.488;13.460;2022-10-16T09:53:05;0.40;;;0.40;;
16025;SDS011;8117;52.488;13.460;2022-10-16T09:55:36;1.20;;;0.60;;
16025;SDS011;8117;52.488;13.460;2022-10-16T09:58:02;0.90;;;0.50;;
16025;SDS011;8117;52.488;13.460;2022-10-16T10:00:29;0.53;;;0.53;;
16025;SDS011;8117;52.488;13.460;2022-10-16T10:02:58;0.33;;;0.33;;
16025;SDS011;8117;52.488;13.460;2022-10-16T10:05:26;0.33;;;0.33;;
16025;SDS011;8117;52.488;13.460;2022-10-16T10:07:54;0.40;;;0.30;;
16025;SDS011;8117;52.488;13.460;2022-10-16T10:10:22;0.73;;;0.63;;
16025;SDS011;8117;52.488;13.460;2022-10-16T10:12:54;2.90;;;0.70;;
16025;SDS011;8117;52.488;13.460;2022-10-16T10:15:21;0.60;;;0.57;;
16025;SDS011;8117;52.488;13.460;2022-10-16T10:17:50;0.40;;;0.40;;
16025;SDS011;8117;52.488;13.460;2022-10-16T10:20:24;0.50;;;0.50;;
16025;SDS011;8117;52.488;13.460;2022-10-16T10:22:53;1.13;;;0.60;;
16025;SDS011;8117;52.488;13.460;2022-10-16T10:25:26;0.63;;;0.60;;
16025;SDS011;8117;52.488;13.460;2022-10-16T10:28:13;0.40;;;0.40;;
16025;SDS011;8117;52.488;13.460;2022-10-16T10:30:51;0.40;;;0.40;;
16025;SDS011;8117;52.488;13.460;2022-10-16T10:33:32;0.53;;;0.50;;
16025;SDS011;8117;52.488;13.460;2022-10-16T10:38:58;0.30;;;0.30;;
16025;SDS011;8117;52.488;13.460;2022-10-16T10:44:55;0.40;;;0.40;;
16025;SDS011;8117;52.488;13.460;2022-10-16T10:53:36;0.77;;;0.30;;
16025;SDS011;8117;52.488;13.460;2022-10-16T10:54:13;0.40;;;0.40;;
16025;SDS011;8117;52.488;13.460;2022-10-16T11:02:58;0.47;;;0.30;;
16025;SDS011;8117;52.488;13.460;2022-10-16T11:05:56;0.37;;;0.37;;
16025;SDS011;8117;52.488;13.460;2022-10-16T11:08:37;0.40;;;0.40;;
16025;SDS011;8117;52.488;13.460;2022-10-16T11:11:42;0.60;;;0.60;;
16025;SDS011;8117;52.488;13.460;2022-10-16T11:27:37;0.50;;;0.23;;
16025;SDS011;8117;52.488;13.460;2022-10-16T11:30:06;0.57;;;0.57;;
16025;SDS011;8117;52.488;13.460;2022-10-16T11:32:48;0.20;;;0.20;;
16025;SDS011;8117;52.488;13.460;2022-10-16T11:35:23;0.50;;;0.30;;
16025;SDS011;8117;52.488;13.460;2022-10-16T11:37:51;0.30;;;0.30;;
16025;SDS011;8117;52.488;13.460;2022-10-16T11:40:22;2.20;;;0.50;;
16025;SDS011;8117;52.488;13.460;2022-10-16T11:42:51;0.47;;;0.47;;
16025;SDS011;8117;52.488;13.460;2022-10-16T11:45:24;1.67;;;0.50;;
16025;SDS011;8117;52.488;13.460;2022-10-16T11:48:00;0.40;;;0.40;;
16025;SDS011;8117;52.488;13.460;2022-10-16T11:51:05;0.37;;;0.37;;
16025;SDS011;8117;52.488;13.460;2022-10-16T11:55:04;0.73;;;0.57;;
16025;SDS011;8117;52.488;13.460;2022-10-16T11:57:18;0.50;;;0.50;;
16025;SDS011;8117;52.488;13.460;2022-10-16T12:16:51;0.50;;;0.45;;
16025;SDS011;8117;52.488;13.460;2022-10-16T14:02:05;0.30;;;0.28;;
16025;SDS011;8117;52.488;13.460;2022-10-16T14:04:40;0.40;;;0.40;;
16025;SDS011;8117;52.488;13.460;2022-10-16T14:07:11;0.22;;;0.22;;
16025;SDS011;8117;52.488;13.460;2022-10-16T14:09:42;0.30;;;0.30;;
16025;SDS011;8117;52.488;13.460;2022-10-16T14:12:18;0.30;;;0.30;;
16025;SDS011;8117;52.488;13.460;2022-10-16T14:14:48;0.40;;;0.40;;
16025;SDS011;8117;52.488;13.460;2022-10-16T14:17:19;0.30;;;0.30;;
16025;SDS011;8117;52.488;13.460;2022-10-16T14:19:48;0.40;;;0.40;;
16025;SDS011;8117;52.488;13.460;2022-10-16T14:22:23;0.30;;;0.30;;
16025;SDS011;8117;52.488;13.460;2022-10-16T14:24:57;0.40;;;0.40;;
16025;SDS011;8117;52.488;13.460;2022-10-16T14:27:26;0.45;;;0.40;;
16025;SDS011;8117;52.488;13.460;2022-10-16T14:30:18;0.43;;;0.22;;
16025;SDS011;8117;52.488;13.460;2022-10-16T14:32:54;1.38;;;0.40;;
16025;SDS011;8117;52.488;13.460;2022-10-16T14:35:24;0.10;;;0.10;;
16025;SDS011;8117;52.488;13.460;2022-10-16T14:37:52;0.85;;;0.50;;
16025;SDS011;8117;52.488;13.460;2022-10-16T14:40:23;0.55;;;0.50;;
16025;SDS011;8117;52.488;13.460;2022-10-16T14:42:54;0.38;;;0.38;;
16025;SDS011;8117;52.488;13.460;2022-10-16T14:45:27;0.30;;;0.30;;
16025;SDS011;8117;52.488;13.460;2022-10-16T14:50:44;0.38;;;0.30;;
16025;SDS011;8117;52.488;13.460;2022-10-16T14:53:14;0.40;;;0.40;;
16025;SDS011;8117;52.488;13.460;2022-10-16T14:55:41;0.20;;;0.20;;
16025;SDS011;8117;52.488;13.460;2022-10-16T14:58:14;0.40;;;0.27;;
16025;SDS011;8117;52.488;13.460;2022-10-16T15:00:43;0.77;;;0.53;;
16025;SDS011;8117;52.488;13.460;2022-10-16T15:03:14;0.83;;;0.60;;
16025;SDS011;8117;52.488;13.460;2022-10-16T15:05:50;1.00;;;0.40;;
16025;SDS011;8117;52.488;13.460;2022-10-16T15:08:24;0.40;;;0.40;;
16025;SDS011;8117;52.488;13.460;2022-10-16T15:10:51;0.70;;;0.30;;
16025;SDS011;8117;52.488;13.460;2022-10-16T15:13:21;0.37;;;0.33;;
16025;SDS011;8117;52.488;13.460;2022-10-16T15:15:51;0.90;;;0.57;;
16025;SDS011;8117;52.488;13.460;2022-10-16T15:18:20;0.45;;;0.40;;
16025;SDS011;8117;52.488;13.460;2022-10-16T15:20:59;0.50;;;0.35;;
16025;SDS011;8117;52.488;13.460;2022-10-16T15:23:55;0.32;;;0.32;;
16025;SDS011;8117;52.488;13.460;2022-10-16T15:26:22;1.23;;;0.60;;
16025;SDS011;8117;52.488;13.460;2022-10-16T15:28:56;0.25;;;0.25;;
16025;SDS011;8117;52.488;13.460;2022-10-16T15:31:27;0.40;;;0.40;;
16025;SDS011;8117;52.488;13.460;2022-10-16T15:34:09;3.00;;;0.63;;
16025;SDS011;8117;52.488;13.460;2022-10-16T15:36:40;0.40;;;0.30;;
16025;SDS011;8117;52.488;13.460;2022-10-16T15:39:11;0.30;;;0.30;;
16025;SDS011;8117;52.488;13.460;2022-10-16T15:41:49;0.30;;;0.23;;
16025;SDS011;8117;52.488;13.460;2022-10-16T15:44:16;0.27;;;0.27;;
16025;SDS011;8117;52.488;13.460;2022-10-16T15:46:43;0.30;;;0.30;;
16025;SDS011;8117;52.488;13.460;2022-10-16T15:49:11;0.82;;;0.57;;
16025;SDS011;8117;52.488;13.460;2022-10-16T15:51:39;0.50;;;0.50;;
16025;SDS011;8117;52.488;13.460;2022-10-16T15:54:06;0.90;;;0.50;;
16025;SDS011;8117;52.488;13.460;2022-10-16T15:56:33;0.87;;;0.87;;
16025;SDS011;8117;52.488;13.460;2022-10-16T15:59:02;0.43;;;0.43;;
16025;SDS011;8117;52.488;13.460;2022-10-16T16:01:38;0.75;;;0.60;;
16025;SDS011;8117;52.488;13.460;2022-10-16T16:04:04;0.67;;;0.60;;
16025;SDS011;8117;52.488;13.460;2022-10-16T16:06:32;0.50;;;0.50;;
16025;SDS011;8117;52.488;13.460;2022-10-16T16:08:59;0.60;;;0.57;;
16025;SDS011;8117;52.488;13.460;2022-10-16T16:11:26;0.60;;;0.47;;
16025;SDS011;8117;52.488;13.460;2022-10-16T16:13:53;1.03;;;0.50;;
16025;SDS011;8117;52.488;13.460;2022-10-16T16:16:20;1.07;;;0.70;;
16025;SDS011;8117;52.488;13.460;2022-10-16T16:18:48;1.67;;;0.80;;
16025;SDS011;8117;52.488;13.460;2022-10-16T16:21:15;0.90;;;0.80;;
16025;SDS011;8117;52.488;13.460;2022-10-16T16:23:43;1.57;;;0.90;;
16025;SDS011;8117;52.488;13.460;2022-10-16T16:39:37;1.20;;;0.90;;
16025;SDS011;8117;52.488;13.460;2022-10-16T16:55:50;1.47;;;1.10;;
16025;SDS011;8117;52.488;13.460;2022-10-16T16:58:46;1.43;;;0.83;;
16025;SDS011;8117;52.488;13.460;2022-10-16T17:01:26;1.20;;;1.10;;
16025;SDS011;8117;52.488;13.460;2022-10-16T17:04:20;1.47;;;1.37;;
16025;SDS011;8117;52.488;13.460;2022-10-16T17:09:00;3.00;;;1.87;;
16025;SDS011;8117;52.488;13.460;2022-10-16T17:14:18;2.47;;;1.20;;
16025;SDS011;8117;52.488;13.460;2022-10-16T17:16:51;1.27;;;1.00;;
16025;SDS011;8117;52.488;13.460;2022-10-16T17:19:56;2.43;;;1.23;;
16025;SDS011;8117;52.488;13.460;2022-10-16T17:22:35;2.75;;;1.52;;
16025;SDS011;8117;52.488;13.460;2022-10-16T17:25:16;4.70;;;1.50;;
16025;SDS011;8117;52.488;13.460;2022-10-16T17:28:04;4.10;;;1.70;;
16025;SDS011;8117;52.488;13.460;2022-10-16T17:34:43;6.07;;;2.40;;
16025;SDS011;8117;52.488;13.460;2022-10-16T17:38:29;3.13;;;1.90;;
16025;SDS011;8117;52.488;13.460;2022-10-16T17:44:28;2.80;;;1.93;;
16025;SDS011;8117;52.488;13.460;2022-10-16T17:49:51;2.47;;;1.23;;
16025;SDS011;8117;52.488;13.460;2022-10-16T17:52:24;7.03;;;2.70;;
16025;SDS011;8117;52.488;13.460;2022-10-16T17:54:51;5.43;;;3.07;;
16025;SDS011;8117;52.488;13.460;2022-10-16T17:57:27;4.00;;;2.13;;
16025;SDS011;8117;52.488;13.460;2022-10-16T18:00:06;5.37;;;2.37;;
16025;SDS011;8117;52.488;13.460;2022-10-16T18:02:50;6.30;;;2.23;;
16025;SDS011;8117;52.488;13.460;2022-10-16T18:09:04;2.40;;;2.20;;
16025;SDS011;8117;52.488;13.460;2022-10-16T18:11:48;3.93;;;2.33;;
16025;SDS011;8117;52.488;13.460;2022-10-16T18:14:27;4.67;;;2.70;;
16025;SDS011;8117;52.488;13.460;2022-10-16T18:20:07;3.90;;;2.53;;
16025;SDS011;8117;52.488;13.460;2022-10-16T18:22:40;4.27;;;2.23;;
16025;SDS011;8117;52.488;13.460;2022-10-16T18:25:10;6.03;;;2.67;;
16025;SDS011;8117;52.488;13.460;2022-10-16T18:27:51;4.83;;;2.53;;
16025;SDS011;8117;52.488;13.460;2022-10-16T18:30:18;2.47;;;1.90;;
16025;SDS011;8117;52.488;13.460;2022-10-16T18:32:52;5.40;;;2.27;;
16025;SDS011;8117;52.488;13.460;2022-10-16T18:35:30;6.70;;;2.57;;
16025;SDS011;8117;52.488;13.460;2022-10-16T18:40:58;6.40;;;3.03;;
16025;SDS011;8117;52.488;13.460;2022-10-16T18:43:56;6.77;;;3.17;;
16025;SDS011;8117;52.488;13.460;2022-10-16T18:46:46;4.07;;;2.60;;
16025;SDS011;8117;52.488;13.460;2022-10-16T18:52:42;4.30;;;2.40;;
16025;SDS011;8117;52.488;13.460;2022-10-16T18:58:33;5.37;;;2.83;;
16025;SDS011;8117;52.488;13.460;2022-10-16T19:01:42;5.17;;;3.63;;
16025;SDS011;8117;52.488;13.460;2022-10-16T19:07:43;4.37;;;3.63;;
16025;SDS011;8117;52.488;13.460;2022-10-16T19:14:49;5.00;;;2.83;;
16025;SDS011;8117;52.488;13.460;2022-10-16T19:17:22;5.37;;;3.43;;
16025;SDS011;8117;52.488;13.460;2022-10-16T19:39:12;4.20;;;2.90;;
16025;SDS011;8117;52.488;13.460;2022-10-16T19:43:59;3.93;;;3.17;;
16025;SDS011;8117;52.488;13.460;2022-10-16T19:48:56;3.20;;;2.87;;
16025;SDS011;8117;52.488;13.460;2022-10-16T19:55:21;3.50;;;2.03;;
16025;SDS011;8117;52.488;13.460;2022-10-16T19:58:24;3.60;;;2.27;;
16025;SDS011;8117;52.488;13.460;2022-10-16T20:01:32;3.63;;;2.60;;
16025;SDS011;8117;52.488;13.460;2022-10-16T20:04:24;3.23;;;2.30;;
